createdAt,value
2019-04-26T00:02:03.499Z,13.85
2019-04-26T00:04:49.506Z,13.94
2019-04-26T00:07:35.599Z,13.77
2019-04-26T00:10:36.499Z,13.91
2019-04-26T00:13:40.876Z,13.95
2019-04-26T00:16:31.054Z,13.93
2019-04-26T00:19:16.959Z,13.28
2019-04-26T00:22:04.971Z,13.55
2019-04-26T00:24:51.256Z,13.33
2019-04-26T00:27:36.705Z,13.51
2019-04-26T00:30:22.903Z,13.61
2019-04-26T00:33:08.323Z,13.73
2019-04-26T00:35:54.187Z,13.68
2019-04-26T00:38:40.337Z,13.73
2019-04-26T00:41:27.185Z,13.61
2019-04-26T00:44:14.809Z,13.73
2019-04-26T00:47:02.255Z,13.83
2019-04-26T00:49:47.907Z,13.64
2019-04-26T00:52:34.638Z,13.24
2019-04-26T00:55:20.443Z,13.42
2019-04-26T00:58:07.015Z,13.44
2019-04-26T01:00:53.601Z,13.62
2019-04-26T01:03:40.300Z,13.70
2019-04-26T01:06:28.407Z,13.56
2019-04-26T01:09:18.086Z,13.34
2019-04-26T01:12:03.604Z,13.31
2019-04-26T01:14:49.219Z,13.18
2019-04-26T01:17:35.198Z,13.07
2019-04-26T01:20:24.755Z,12.80
2019-04-26T01:23:13.795Z,12.79
2019-04-26T01:26:07.604Z,12.84
2019-04-26T01:28:59.923Z,12.75
2019-04-26T01:31:54.599Z,12.69
2019-04-26T01:34:43.069Z,12.61
2019-04-26T01:37:30.913Z,12.60
2019-04-26T01:40:20.989Z,12.54
2019-04-26T01:43:36.223Z,12.48
2019-04-26T01:46:29.362Z,12.48
2019-04-26T01:49:18.382Z,12.38
2019-04-26T01:52:08.624Z,12.21
2019-04-26T01:54:54.997Z,12.07
2019-04-26T01:57:41.316Z,12.08
2019-04-26T02:01:02.468Z,12.10
2019-04-26T02:03:48.937Z,12.05
2019-04-26T02:06:35.291Z,12.04
2019-04-26T02:09:22.984Z,11.94
2019-04-26T02:12:08.941Z,11.91
2019-04-26T02:14:54.480Z,11.88
2019-04-26T02:17:42.874Z,11.83
2019-04-26T02:21:26.358Z,11.82
2019-04-26T02:24:17.552Z,11.70
2019-04-26T02:27:07.104Z,11.76
2019-04-26T02:29:53.367Z,11.88
2019-04-26T02:32:39.378Z,11.79
2019-04-26T02:35:27.180Z,11.73
2019-04-26T02:38:13.227Z,11.74
2019-04-26T02:40:59.059Z,11.77
2019-04-26T02:43:48.664Z,11.75
2019-04-26T02:46:51.661Z,11.69
2019-04-26T02:49:42.673Z,11.56
2019-04-26T02:52:54.264Z,11.38
2019-04-26T02:56:12.201Z,11.68
2019-04-26T02:59:32.376Z,11.98
2019-04-26T03:02:23.545Z,12.10
2019-04-26T03:05:09.873Z,12.07
2019-04-26T03:08:16.611Z,12.13
2019-04-26T03:11:12.016Z,12.28
2019-04-26T03:14:21.735Z,12.31
2019-04-26T03:17:35.641Z,12.08
2019-04-26T03:20:32.524Z,11.90
2019-04-26T03:23:58.315Z,12.23
2019-04-26T03:27:19.135Z,12.28
2019-04-26T03:30:20.045Z,12.32
2019-04-26T03:33:26.161Z,12.34
2019-04-26T03:36:58.852Z,12.34
2019-04-26T03:40:02.162Z,12.28
2019-04-26T03:43:22.623Z,12.12
2019-04-26T03:46:30.919Z,12.07
2019-04-26T03:49:56.940Z,12.29
2019-04-26T03:52:58.380Z,12.41
2019-04-26T03:56:15.077Z,12.51
2019-04-26T03:59:20.494Z,12.58
2019-04-26T04:02:37.578Z,12.66
2019-04-26T04:05:37.289Z,12.66
2019-04-26T04:08:31.448Z,12.69
2019-04-26T04:11:21.179Z,12.76
2019-04-26T04:14:20.973Z,12.73
2019-04-26T04:17:28.606Z,12.66
2019-04-26T04:20:33.560Z,12.62
2019-04-26T04:23:47.184Z,12.73
2019-04-26T04:27:11.156Z,12.74
2019-04-26T04:30:23.362Z,12.68
2019-04-26T04:33:35.417Z,12.79
2019-04-26T04:36:28.641Z,12.51
2019-04-26T04:39:53.735Z,12.03
2019-04-26T04:43:16.769Z,11.85
2019-04-26T04:47:25.349Z,12.13
2019-04-26T04:50:40.977Z,12.28
2019-04-26T04:53:49.708Z,12.54
2019-04-26T04:57:15.801Z,12.66
2019-04-26T05:00:21.213Z,12.66
2019-04-26T05:03:34.173Z,12.93
2019-04-26T05:06:35.625Z,13.04
2019-04-26T05:09:28.887Z,12.92
2019-04-26T05:12:36.473Z,12.58
2019-04-26T05:15:55.930Z,12.37
2019-04-26T05:19:36.748Z,12.75
2019-04-26T05:22:54.065Z,12.93
2019-04-26T05:26:38.566Z,12.93
2019-04-26T05:30:38.873Z,12.98
2019-04-26T05:33:54.636Z,13.21
2019-04-26T05:37:30.225Z,13.26
2019-04-26T05:41:09.266Z,13.32
2019-04-26T05:44:44.282Z,13.30
2019-04-26T05:48:09.354Z,13.35
2019-04-26T05:51:36.514Z,13.30
2019-04-26T05:55:10.674Z,13.38
2019-04-26T05:58:29.416Z,13.44
2019-04-26T06:01:49.153Z,12.88
2019-04-26T06:04:59.245Z,13.22
2019-04-26T06:08:04.919Z,12.39
2019-04-26T06:11:00.042Z,12.40
2019-04-26T06:14:36.986Z,12.59
2019-04-26T06:18:13.422Z,13.27
2019-04-26T06:21:10.462Z,13.26
2019-04-26T06:24:33.915Z,13.42
2019-04-26T06:27:54.597Z,13.48
2019-04-26T06:31:10.959Z,12.98
2019-04-26T06:34:57.614Z,13.18
2019-04-26T06:38:06.152Z,13.00
2019-04-26T06:41:21.732Z,12.66
2019-04-26T06:44:13.761Z,12.67
2019-04-26T06:47:19.223Z,12.88
2019-04-26T06:50:15.300Z,12.50
2019-04-26T06:53:11.197Z,12.96
2019-04-26T06:56:35.122Z,13.17
2019-04-26T07:00:20.147Z,12.93
2019-04-26T07:03:21.600Z,12.49
2019-04-26T07:06:12.122Z,13.08
2019-04-26T07:09:07.703Z,13.42
2019-04-26T07:12:38.974Z,13.69
2019-04-26T07:16:00.301Z,13.53
2019-04-26T07:19:11.215Z,13.32
2019-04-26T07:22:35.617Z,13.03
2019-04-26T07:26:13.668Z,12.73
2019-04-26T07:29:41.935Z,12.86
2019-04-26T07:33:04.179Z,12.95
2019-04-26T07:36:15.376Z,12.95
2019-04-26T07:39:23.222Z,12.76
2019-04-26T07:43:04.000Z,12.57
2019-04-26T07:46:17.742Z,12.68
2019-04-26T07:49:56.538Z,12.84
2019-04-26T07:53:03.207Z,12.87
2019-04-26T07:56:34.126Z,12.41
2019-04-26T08:00:08.665Z,12.55
2019-04-26T08:03:29.698Z,12.56
2019-04-26T08:06:52.567Z,12.70
2019-04-26T08:09:59.544Z,12.35
2019-04-26T08:12:40.065Z,12.50
2019-04-26T08:15:42.907Z,12.70
2019-04-26T08:18:41.126Z,12.31
2019-04-26T08:21:32.235Z,11.83
2019-04-26T08:24:28.209Z,12.15
2019-04-26T08:27:23.116Z,12.47
2019-04-26T08:30:17.082Z,12.52
2019-04-26T08:33:07.973Z,12.61
2019-04-26T08:35:55.812Z,12.66
2019-04-26T08:38:42.130Z,11.80
2019-04-26T08:41:28.170Z,12.16
2019-04-26T08:44:22.226Z,12.47
2019-04-26T08:47:29.300Z,12.36
2019-04-26T08:50:36.394Z,12.43
2019-04-26T08:53:24.663Z,12.84
2019-04-26T08:56:15.323Z,12.87
2019-04-26T08:59:08.628Z,13.00
2019-04-26T09:02:18.874Z,12.81
2019-04-26T09:05:26.304Z,12.96
2019-04-26T09:08:15.637Z,13.20
2019-04-26T09:11:04.097Z,13.02
2019-04-26T09:13:51.940Z,12.92
2019-04-26T09:16:49.598Z,13.31
2019-04-26T09:19:26.194Z,12.93
2019-04-26T09:22:26.407Z,12.75
2019-04-26T09:25:26.215Z,12.84
2019-04-26T09:28:31.696Z,12.85
2019-04-26T09:31:35.671Z,13.66
2019-04-26T09:34:21.432Z,13.92
2019-04-26T09:37:06.856Z,14.05
2019-04-26T09:39:52.663Z,13.67
2019-04-26T09:42:47.997Z,12.76
2019-04-26T09:45:48.311Z,13.41
2019-04-26T09:48:38.602Z,12.96
2019-04-26T09:51:24.849Z,13.40
2019-04-26T09:54:10.549Z,13.29
2019-04-26T09:56:56.036Z,14.18
2019-04-26T09:59:41.915Z,14.25
2019-04-26T10:02:29.504Z,13.98
2019-04-26T10:05:17.702Z,14.19
2019-04-26T10:08:03.685Z,14.65
2019-04-26T10:10:51.664Z,14.64
2019-04-26T10:13:43.951Z,15.05
2019-04-26T10:16:37.326Z,15.82
2019-04-26T10:19:47.501Z,14.54
2019-04-26T10:22:33.291Z,15.17
2019-04-26T10:25:19.246Z,14.32
2019-04-26T10:28:04.870Z,14.97
2019-04-26T10:30:50.662Z,15.06
2019-04-26T10:33:36.788Z,15.00
2019-04-26T10:36:26.184Z,14.05
2019-04-26T10:39:21.364Z,14.63
2019-04-26T10:42:12.113Z,15.04
2019-04-26T10:44:57.946Z,15.01
2019-04-26T10:47:43.461Z,15.11
2019-04-26T10:50:33.079Z,15.07
2019-04-26T10:53:51.182Z,15.09
2019-04-26T10:56:54.782Z,14.72
2019-04-26T10:59:59.309Z,14.81
2019-04-26T11:02:45.609Z,14.14
2019-04-26T11:05:34.119Z,14.51
2019-04-26T11:08:20.374Z,14.73
2019-04-26T11:11:08.616Z,14.96
2019-04-26T11:13:57.381Z,15.13
2019-04-26T11:16:45.122Z,14.64
2019-04-26T11:19:32.016Z,14.51
2019-04-26T11:22:28.543Z,14.24
2019-04-26T11:25:06.385Z,14.51
2019-04-26T11:27:52.589Z,14.29
2019-04-26T11:30:38.407Z,14.21
2019-04-26T11:33:24.121Z,14.44
2019-04-26T11:36:09.690Z,14.48
2019-04-26T11:38:56.072Z,14.63
2019-04-26T11:41:42.000Z,14.62
2019-04-26T11:44:28.535Z,14.77
2019-04-26T11:47:16.514Z,15.06
2019-04-26T11:50:02.459Z,14.97
2019-04-26T11:52:48.666Z,14.95
2019-04-26T11:55:35.688Z,15.32
2019-04-26T11:58:22.641Z,15.14
2019-04-26T12:01:11.258Z,15.20
2019-04-26T12:04:13.790Z,15.18
2019-04-26T12:07:09.822Z,15.36
2019-04-26T12:09:56.832Z,15.18
2019-04-26T12:12:46.490Z,15.22
2019-04-26T12:15:31.966Z,15.52
2019-04-26T12:18:17.623Z,14.85
2019-04-26T12:21:03.482Z,14.87
2019-04-26T12:23:51.316Z,14.60
2019-04-26T12:26:43.116Z,14.91
2019-04-26T12:29:24.606Z,14.43
2019-04-26T12:32:10.290Z,15.00
2019-04-26T12:34:55.897Z,15.24
2019-04-26T12:37:41.772Z,15.20
2019-04-26T12:40:27.641Z,14.94
2019-04-26T12:43:15.458Z,14.38
2019-04-26T12:46:39.175Z,14.79
2019-04-26T12:49:25.848Z,15.01
2019-04-26T12:52:11.374Z,15.07
2019-04-26T12:54:57.756Z,15.12
2019-04-26T12:57:43.779Z,14.61
2019-04-26T13:00:33.032Z,14.70
2019-04-26T13:03:20.440Z,14.58
2019-04-26T13:06:04.758Z,14.69
2019-04-26T13:08:51.413Z,15.20
2019-04-26T13:11:52.776Z,14.86
2019-04-26T13:15:00.389Z,15.50
2019-04-26T13:17:51.207Z,15.58
2019-04-26T13:20:42.262Z,15.97
2019-04-26T13:23:29.820Z,16.17
2019-04-26T13:26:15.416Z,16.93
2019-04-26T13:29:01.363Z,15.37
2019-04-26T13:31:47.851Z,16.40
2019-04-26T13:34:37.246Z,16.58
2019-04-26T13:37:23.478Z,15.77
2019-04-26T13:40:09.883Z,15.94
2019-04-26T13:42:58.503Z,16.31
2019-04-26T13:46:07.875Z,15.32
2019-04-26T13:49:18.170Z,15.32
2019-04-26T13:52:04.342Z,15.49
2019-04-26T13:54:51.250Z,15.89
2019-04-26T13:57:40.234Z,15.55
2019-04-26T14:00:28.995Z,15.83
2019-04-26T14:03:18.601Z,15.44
2019-04-26T14:06:04.682Z,15.78
2019-04-26T14:08:54.013Z,16.16
2019-04-26T14:11:38.215Z,16.12
2019-04-26T14:14:24.207Z,15.93
2019-04-26T14:17:12.902Z,16.40
2019-04-26T14:19:59.129Z,16.96
2019-04-26T14:22:57.591Z,17.24
2019-04-26T14:25:56.187Z,17.61
2019-04-26T14:28:42.245Z,17.27
2019-04-26T14:31:28.552Z,18.07
2019-04-26T14:34:14.250Z,17.65
2019-04-26T14:37:06.342Z,17.61
2019-04-26T14:39:50.608Z,16.69
2019-04-26T14:42:42.212Z,16.32
2019-04-26T14:45:24.222Z,16.34
2019-04-26T14:48:20.059Z,16.51
2019-04-26T14:51:07.885Z,15.65
2019-04-26T14:53:45.383Z,15.98
2019-04-26T14:56:30.968Z,16.06
2019-04-26T14:59:39.394Z,15.75
2019-04-26T15:02:47.160Z,15.85
2019-04-26T15:05:48.669Z,15.31
2019-04-26T15:08:34.518Z,15.47
2019-04-26T15:11:22.958Z,15.86
2019-04-26T15:14:12.729Z,15.98
2019-04-26T15:16:58.793Z,15.63
2019-04-26T15:19:47.211Z,15.50
2019-04-26T15:22:33.867Z,15.65
2019-04-26T15:25:19.396Z,15.68
2019-04-26T15:28:06.876Z,15.61
2019-04-26T15:30:53.205Z,15.98
2019-04-26T15:33:42.725Z,15.82
2019-04-26T15:36:26.718Z,16.14
2019-04-26T15:39:34.321Z,16.08
2019-04-26T15:43:01.151Z,15.90
2019-04-26T15:45:57.147Z,15.70
2019-04-26T15:49:12.539Z,15.97
2019-04-26T15:51:59.743Z,16.00
2019-04-26T15:54:47.170Z,16.28
2019-04-26T15:57:34.646Z,15.41
2019-04-26T16:00:22.469Z,15.79
2019-04-26T16:03:09.123Z,16.54
2019-04-26T16:05:54.789Z,16.94
2019-04-26T16:08:43.669Z,16.30
2019-04-26T16:11:28.687Z,16.90
2019-04-26T16:14:14.315Z,16.69
2019-04-26T16:17:03.174Z,16.17
2019-04-26T16:19:47.890Z,15.99
2019-04-26T16:22:33.440Z,16.42
2019-04-26T16:25:20.522Z,16.15
2019-04-26T16:28:24.489Z,16.63
2019-04-26T16:31:35.412Z,16.70
2019-04-26T16:34:23.389Z,17.43
2019-04-26T16:37:09.911Z,16.90
2019-04-26T16:40:07.856Z,16.71
2019-04-26T16:42:56.583Z,16.88
2019-04-26T16:45:41.262Z,16.19
2019-04-26T16:48:28.803Z,16.41
2019-04-26T16:51:14.613Z,16.38
2019-04-26T16:54:07.360Z,16.71
2019-04-26T16:56:48.177Z,16.47
2019-04-26T16:59:33.660Z,16.00
2019-04-26T17:02:25.527Z,16.19
2019-04-26T17:05:19.068Z,16.62
2019-04-26T17:07:58.834Z,16.78
2019-04-26T17:10:43.023Z,16.66
2019-04-26T17:13:30.033Z,16.04
2019-04-26T17:16:16.749Z,16.02
2019-04-26T17:19:02.362Z,15.77
2019-04-26T17:22:00.959Z,16.06
2019-04-26T17:24:54.520Z,15.82
2019-04-26T17:27:44.585Z,15.68
2019-04-26T17:30:34.491Z,15.95
2019-04-26T17:33:17.351Z,15.96
2019-04-26T17:36:03.229Z,15.92
2019-04-26T17:38:50.537Z,15.96
2019-04-26T17:41:36.639Z,15.72
2019-04-26T17:44:34.147Z,15.83
2019-04-26T17:47:20.359Z,15.81
2019-04-26T17:50:06.576Z,15.79
2019-04-26T17:52:52.211Z,15.78
2019-04-26T17:55:38.066Z,15.58
2019-04-26T17:58:31.039Z,15.45
2019-04-26T18:01:39.829Z,15.47
2019-04-26T18:04:05.626Z,15.41
2019-04-26T18:07:02.964Z,15.27
2019-04-26T18:09:45.803Z,15.31
2019-04-26T18:12:27.383Z,15.25
2019-04-26T18:15:18.777Z,15.29
2019-04-26T18:18:23.336Z,15.21
2019-04-26T18:21:29.415Z,15.20
2019-04-26T18:24:15.764Z,15.13
2019-04-26T18:27:03.428Z,15.06
2019-04-26T18:29:50.294Z,14.81
2019-04-26T18:32:42.002Z,14.84
2019-04-26T18:35:23.556Z,14.90
2019-04-26T18:38:12.548Z,14.72
2019-04-26T18:41:01.101Z,14.35
2019-04-26T18:43:45.091Z,14.33
2019-04-26T18:46:47.144Z,14.34
2019-04-26T18:49:32.995Z,14.38
2019-04-26T18:52:23.335Z,14.37
2019-04-26T18:55:17.357Z,14.45
2019-04-26T18:58:05.593Z,14.54
2019-04-26T19:00:53.111Z,14.53
2019-04-26T19:03:38.715Z,14.48
2019-04-26T19:06:29.706Z,14.40
2019-04-26T19:09:13.059Z,14.34
2019-04-26T19:11:59.045Z,14.29
2019-04-26T19:15:13.506Z,14.13
2019-04-26T19:18:12.753Z,14.10
2019-04-26T19:21:11.624Z,14.58
2019-04-26T19:24:05.801Z,14.18
2019-04-26T19:26:50.022Z,14.04
2019-04-26T19:29:36.286Z,14.22
2019-04-26T19:32:29.072Z,14.19
2019-04-26T19:35:23.400Z,14.20
2019-04-26T19:38:11.950Z,14.12
2019-04-26T19:40:58.513Z,13.97
2019-04-26T19:43:46.176Z,13.99
2019-04-26T19:46:53.577Z,14.07
2019-04-26T19:50:03.130Z,13.93
2019-04-26T19:52:52.820Z,14.01
2019-04-26T19:55:51.815Z,13.86
2019-04-26T19:58:37.771Z,14.07
2019-04-26T20:01:27.208Z,14.11
2019-04-26T20:04:13.590Z,13.93
2019-04-26T20:07:01.251Z,13.96
2019-04-26T20:09:47.198Z,13.85
2019-04-26T20:12:37.014Z,13.66
2019-04-26T20:15:26.619Z,13.64
2019-04-26T20:18:08.331Z,13.62
2019-04-26T20:20:54.123Z,13.70
2019-04-26T20:23:43.787Z,13.83
2019-04-26T20:26:27.500Z,13.66
2019-04-26T20:29:13.389Z,13.40
2019-04-26T20:32:06.063Z,13.54
2019-04-26T20:35:04.033Z,13.65
2019-04-26T20:37:49.700Z,13.51
2019-04-26T20:40:35.211Z,13.18
2019-04-26T20:43:26.334Z,12.86
2019-04-26T20:46:14.839Z,12.98
2019-04-26T20:49:01.381Z,12.69
2019-04-26T20:51:46.216Z,12.72
2019-04-26T20:54:38.445Z,12.74
2019-04-26T20:57:26.579Z,12.66
2019-04-26T21:00:13.328Z,12.73
2019-04-26T21:03:01.270Z,12.62
2019-04-26T21:05:52.808Z,12.58
2019-04-26T21:08:34.582Z,12.67
2019-04-26T21:11:21.811Z,12.74
2019-04-26T21:14:08.766Z,12.63
2019-04-26T21:16:54.639Z,12.53
2019-04-26T21:19:41.709Z,12.41
2019-04-26T21:22:34.687Z,12.53
2019-04-26T21:25:32.610Z,12.42
2019-04-26T21:28:26.171Z,12.17
2019-04-26T21:31:28.438Z,12.27
2019-04-26T21:34:21.634Z,12.36
2019-04-26T21:37:31.611Z,12.16
2019-04-26T21:40:28.046Z,11.99
2019-04-26T21:43:18.025Z,12.06
2019-04-26T21:46:08.351Z,12.27
2019-04-26T21:48:53.499Z,12.24
2019-04-26T21:51:40.098Z,12.25
2019-04-26T21:54:26.277Z,12.33
2019-04-26T21:57:12.099Z,12.29
2019-04-26T21:59:58.371Z,12.40
2019-04-26T22:02:44.731Z,12.43
2019-04-26T22:05:31.009Z,12.32
2019-04-26T22:08:24.687Z,12.23
2019-04-26T22:11:07.403Z,12.14
2019-04-26T22:14:03.049Z,12.16
2019-04-26T22:16:57.587Z,12.12
2019-04-26T22:20:16.386Z,12.12
2019-04-26T22:23:27.785Z,12.00
2019-04-26T22:26:16.506Z,12.12
2019-04-26T22:29:03.812Z,12.08
2019-04-26T22:31:50.091Z,11.97
2019-04-26T22:34:41.447Z,12.17
2019-04-26T22:37:30.045Z,11.82
2019-04-26T22:40:19.529Z,11.92
2019-04-26T22:43:22.948Z,11.71
2019-04-26T22:46:44.384Z,11.48
2019-04-26T22:49:19.496Z,11.69
2019-04-26T22:52:06.316Z,11.58
2019-04-26T22:54:53.983Z,11.38
2019-04-26T22:57:39.781Z,11.45
2019-04-26T23:00:29.788Z,11.32
2019-04-26T23:03:17.461Z,11.36
2019-04-26T23:06:07.875Z,11.49
2019-04-26T23:08:54.035Z,11.43
2019-04-26T23:11:45.292Z,11.21
2019-04-26T23:14:52.185Z,11.35
2019-04-26T23:17:57.131Z,11.20
2019-04-26T23:20:48.480Z,11.23
2019-04-26T23:23:37.126Z,11.33
2019-04-26T23:26:23.168Z,11.20
2019-04-26T23:29:15.669Z,11.31
2019-04-26T23:31:57.129Z,11.37
2019-04-26T23:34:44.464Z,11.49
2019-04-26T23:37:31.050Z,11.36
2019-04-26T23:40:20.627Z,11.47
2019-04-26T23:43:04.655Z,11.44
2019-04-26T23:45:51.091Z,11.24
2019-04-26T23:48:42.721Z,11.51
2019-04-26T23:51:28.222Z,11.54
2019-04-26T23:54:13.851Z,11.63
2019-04-26T23:57:00.386Z,11.52
2019-04-26T23:59:46.443Z,11.66
